createdAt,value
2018-07-17T00:00:08.247Z,1.609344
2018-07-17T00:00:20.877Z,1.609344
2018-07-17T00:00:33.320Z,1.609344
2018-07-17T00:00:45.799Z,1.609344
2018-07-17T00:00:58.215Z,1.609344
2018-07-17T00:01:10.640Z,1.609344
2018-07-17T00:01:23.121Z,1.609344
2018-07-17T00:01:35.550Z,1.609344
2018-07-17T00:01:48.191Z,3.218688
2018-07-17T00:02:00.704Z,3.218688
2018-07-17T00:02:13.141Z,3.218688
2018-07-17T00:02:25.736Z,3.218688
2018-07-17T00:02:38.138Z,3.218688
2018-07-17T00:02:50.551Z,3.218688
2018-07-17T00:03:03.011Z,3.218688
2018-07-17T00:03:15.458Z,1.609344
2018-07-17T00:03:27.903Z,3.218688
2018-07-17T00:03:40.313Z,3.218688
2018-07-17T00:03:52.757Z,3.218688
2018-07-17T00:04:05.164Z,1.609344
2018-07-17T00:04:17.571Z,1.609344
2018-07-17T00:04:29.969Z,1.609344
2018-07-17T00:04:42.362Z,3.218688
2018-07-17T00:04:54.994Z,4.828032
2018-07-17T00:05:07.400Z,1.609344
2018-07-17T00:05:19.800Z,1.609344
2018-07-17T00:05:32.294Z,3.218688
2018-07-17T00:05:44.695Z,4.828032
2018-07-17T00:05:57.107Z,4.828032
2018-07-17T00:06:09.514Z,1.609344
2018-07-17T00:06:21.924Z,3.218688
2018-07-17T00:06:34.332Z,3.218688
2018-07-17T00:06:46.740Z,3.218688
2018-07-17T00:06:59.168Z,3.218688
2018-07-17T00:07:11.585Z,3.218688
2018-07-17T00:07:24.113Z,3.218688
2018-07-17T00:07:36.515Z,3.218688
2018-07-17T00:07:48.912Z,3.218688
2018-07-17T00:08:01.321Z,3.218688
2018-07-17T00:08:13.866Z,3.218688
2018-07-17T00:08:26.294Z,3.218688
2018-07-17T00:08:38.737Z,3.218688
2018-07-17T00:08:51.139Z,3.218688
2018-07-17T00:09:03.562Z,3.218688
2018-07-17T00:09:15.968Z,3.218688
2018-07-17T00:09:28.432Z,3.218688
2018-07-17T00:09:41.567Z,3.218688
2018-07-17T00:09:54.532Z,3.218688
2018-07-17T00:10:06.939Z,3.218688
2018-07-17T00:10:19.346Z,3.218688
2018-07-17T00:10:31.741Z,3.218688
2018-07-17T00:10:44.219Z,3.218688
2018-07-17T00:10:56.640Z,3.218688
2018-07-17T00:11:09.203Z,3.218688
2018-07-17T00:11:21.674Z,4.828032
2018-07-17T00:11:34.075Z,4.828032
2018-07-17T00:11:46.490Z,4.828032
2018-07-17T00:11:58.897Z,4.828032
2018-07-17T00:12:11.456Z,3.218688
2018-07-17T00:12:23.869Z,3.218688
2018-07-17T00:12:36.480Z,4.828032
2018-07-17T00:12:49.692Z,4.828032
2018-07-17T00:13:02.881Z,4.828032
2018-07-17T00:13:15.293Z,1.609344
2018-07-17T00:13:27.708Z,4.828032
2018-07-17T00:13:40.177Z,6.437376
2018-07-17T00:13:52.615Z,6.437376
2018-07-17T00:14:05.026Z,3.218688
2018-07-17T00:14:17.412Z,3.218688
2018-07-17T00:14:29.804Z,6.437376
2018-07-17T00:14:42.222Z,8.04672
2018-07-17T00:14:54.624Z,8.04672
2018-07-17T00:15:07.040Z,4.828032
2018-07-17T00:15:19.506Z,4.828032
2018-07-17T00:15:31.929Z,4.828032
2018-07-17T00:15:44.338Z,4.828032
2018-07-17T00:15:56.760Z,4.828032
2018-07-17T00:16:09.185Z,3.218688
2018-07-17T00:16:21.665Z,3.218688
2018-07-17T00:16:34.126Z,4.828032
2018-07-17T00:16:46.541Z,6.437376
2018-07-17T00:16:59.003Z,6.437376
2018-07-17T00:17:11.407Z,4.828032
2018-07-17T00:17:23.808Z,6.437376
2018-07-17T00:17:36.213Z,6.437376
2018-07-17T00:17:48.687Z,6.437376
2018-07-17T00:18:01.103Z,6.437376
2018-07-17T00:18:13.517Z,3.218688
2018-07-17T00:18:25.917Z,4.828032
2018-07-17T00:18:38.327Z,4.828032
2018-07-17T00:18:50.715Z,4.828032
2018-07-17T00:19:03.115Z,4.828032
2018-07-17T00:19:15.528Z,3.218688
2018-07-17T00:19:27.940Z,4.828032
2018-07-17T00:19:40.352Z,4.828032
2018-07-17T00:19:52.770Z,4.828032
2018-07-17T00:20:05.169Z,3.218688
2018-07-17T00:20:17.579Z,4.828032
2018-07-17T00:20:29.988Z,4.828032
2018-07-17T00:20:42.479Z,4.828032
2018-07-17T00:20:54.871Z,4.828032
2018-07-17T00:21:07.364Z,1.609344
2018-07-17T00:21:19.776Z,1.609344
2018-07-17T00:21:32.212Z,3.218688
2018-07-17T00:21:44.652Z,3.218688
2018-07-17T00:21:57.060Z,3.218688
2018-07-17T00:22:09.477Z,1.609344
2018-07-17T00:22:21.859Z,4.828032
2018-07-17T00:22:34.283Z,8.04672
2018-07-17T00:22:46.688Z,8.04672
2018-07-17T00:22:59.099Z,8.04672
2018-07-17T00:23:11.553Z,8.04672
2018-07-17T00:23:23.956Z,8.04672
2018-07-17T00:23:36.357Z,8.04672
2018-07-17T00:23:48.853Z,8.04672
2018-07-17T00:24:01.269Z,8.04672
2018-07-17T00:24:13.682Z,3.218688
2018-07-17T00:24:26.077Z,3.218688
2018-07-17T00:24:38.474Z,4.828032
2018-07-17T00:24:50.878Z,4.828032
2018-07-17T00:25:03.299Z,4.828032
2018-07-17T00:25:15.745Z,3.218688
2018-07-17T00:25:28.170Z,3.218688
2018-07-17T00:25:40.609Z,3.218688
2018-07-17T00:25:53.162Z,3.218688
2018-07-17T00:26:05.568Z,3.218688
2018-07-17T00:26:17.972Z,3.218688
2018-07-17T00:26:30.381Z,3.218688
2018-07-17T00:26:42.798Z,3.218688
2018-07-17T00:26:55.236Z,3.218688
2018-07-17T00:27:07.643Z,1.609344
2018-07-17T00:27:20.046Z,3.218688
2018-07-17T00:27:32.450Z,3.218688
2018-07-17T00:27:44.842Z,3.218688
2018-07-17T00:27:57.234Z,3.218688
2018-07-17T00:28:09.652Z,3.218688
2018-07-17T00:28:22.066Z,3.218688
2018-07-17T00:28:34.481Z,3.218688
2018-07-17T00:28:46.882Z,3.218688
2018-07-17T00:28:59.317Z,3.218688
2018-07-17T00:29:11.709Z,3.218688
2018-07-17T00:29:24.109Z,3.218688
2018-07-17T00:29:36.518Z,3.218688
2018-07-17T00:29:49.085Z,3.218688
2018-07-17T00:30:01.494Z,3.218688
2018-07-17T00:30:13.891Z,3.218688
2018-07-17T00:30:26.297Z,3.218688
2018-07-17T00:30:38.713Z,3.218688
2018-07-17T00:30:51.193Z,3.218688
2018-07-17T00:31:03.630Z,3.218688
2018-07-17T00:31:16.136Z,3.218688
2018-07-17T00:31:28.598Z,3.218688
2018-07-17T00:31:40.996Z,3.218688
2018-07-17T00:31:53.392Z,4.828032
2018-07-17T00:32:05.792Z,1.609344
2018-07-17T00:32:18.212Z,3.218688
2018-07-17T00:32:30.613Z,3.218688
2018-07-17T00:32:43.016Z,3.218688
2018-07-17T00:32:55.433Z,4.828032
2018-07-17T00:33:07.828Z,6.437376
2018-07-17T00:33:20.278Z,6.437376
2018-07-17T00:33:32.675Z,6.437376
2018-07-17T00:33:45.068Z,6.437376
2018-07-17T00:33:57.472Z,6.437376
2018-07-17T00:34:09.994Z,3.218688
2018-07-17T00:34:22.402Z,3.218688
2018-07-17T00:34:34.806Z,4.828032
2018-07-17T00:34:47.229Z,4.828032
2018-07-17T00:34:59.689Z,4.828032
2018-07-17T00:35:12.092Z,3.218688
2018-07-17T00:35:24.482Z,3.218688
2018-07-17T00:35:36.889Z,3.218688
2018-07-17T00:35:49.316Z,3.218688
2018-07-17T00:36:01.709Z,3.218688
2018-07-17T00:36:14.182Z,1.609344
2018-07-17T00:36:26.617Z,3.218688
2018-07-17T00:36:39.019Z,3.218688
2018-07-17T00:36:51.407Z,3.218688
2018-07-17T00:37:03.868Z,3.218688
2018-07-17T00:37:16.282Z,1.609344
2018-07-17T00:37:28.679Z,1.609344
2018-07-17T00:37:41.087Z,1.609344
2018-07-17T00:37:53.597Z,3.218688
2018-07-17T00:38:06.014Z,1.609344
2018-07-17T00:38:18.411Z,1.609344
2018-07-17T00:38:30.806Z,3.218688
2018-07-17T00:38:43.203Z,6.437376
2018-07-17T00:38:55.610Z,8.04672
2018-07-17T00:39:08.095Z,3.218688
2018-07-17T00:39:20.480Z,3.218688
2018-07-17T00:39:32.891Z,3.218688
2018-07-17T00:39:45.300Z,4.828032
2018-07-17T00:39:57.690Z,4.828032
2018-07-17T00:40:10.114Z,1.609344
2018-07-17T00:40:22.510Z,3.218688
2018-07-17T00:40:34.981Z,3.218688
2018-07-17T00:40:47.367Z,3.218688
2018-07-17T00:40:59.771Z,3.218688
2018-07-17T00:41:12.192Z,3.218688
2018-07-17T00:41:24.612Z,3.218688
2018-07-17T00:41:37.042Z,3.218688
2018-07-17T00:41:49.473Z,3.218688
2018-07-17T00:42:01.878Z,3.218688
2018-07-17T00:42:14.292Z,3.218688
2018-07-17T00:42:26.718Z,3.218688
2018-07-17T00:42:39.131Z,3.218688
2018-07-17T00:42:51.555Z,3.218688
2018-07-17T00:43:03.969Z,3.218688
2018-07-17T00:43:16.382Z,3.218688
2018-07-17T00:43:28.797Z,4.828032
2018-07-17T00:43:41.202Z,6.437376
2018-07-17T00:43:53.644Z,6.437376
2018-07-17T00:44:06.142Z,3.218688
2018-07-17T00:44:18.606Z,3.218688
2018-07-17T00:44:31.003Z,3.218688
2018-07-17T00:44:43.425Z,3.218688
2018-07-17T00:44:55.820Z,3.218688
2018-07-17T00:45:08.239Z,3.218688
2018-07-17T00:45:20.659Z,6.437376
2018-07-17T00:45:33.071Z,6.437376
2018-07-17T00:45:45.492Z,6.437376
2018-07-17T00:45:57.911Z,6.437376
2018-07-17T00:46:10.321Z,3.218688
2018-07-17T00:46:22.722Z,3.218688
2018-07-17T00:46:35.137Z,3.218688
2018-07-17T00:46:47.550Z,3.218688
2018-07-17T00:46:59.980Z,3.218688
2018-07-17T00:47:12.401Z,1.609344
2018-07-17T00:47:24.793Z,3.218688
2018-07-17T00:47:37.208Z,4.828032
2018-07-17T00:47:49.596Z,4.828032
2018-07-17T00:48:02.182Z,4.828032
2018-07-17T00:48:14.620Z,3.218688
2018-07-17T00:48:27.035Z,4.828032
2018-07-17T00:48:39.443Z,4.828032
2018-07-17T00:48:51.949Z,4.828032
2018-07-17T00:49:04.347Z,4.828032
2018-07-17T00:49:16.739Z,6.437376
2018-07-17T00:49:29.173Z,6.437376
2018-07-17T00:49:41.644Z,6.437376
2018-07-17T00:49:54.037Z,6.437376
2018-07-17T00:50:06.467Z,3.218688
2018-07-17T00:50:18.873Z,3.218688
2018-07-17T00:50:31.262Z,3.218688
2018-07-17T00:50:43.670Z,4.828032
2018-07-17T00:50:56.080Z,6.437376
2018-07-17T00:51:08.486Z,3.218688
2018-07-17T00:51:20.950Z,3.218688
2018-07-17T00:51:33.345Z,3.218688
2018-07-17T00:51:45.775Z,3.218688
2018-07-17T00:51:58.181Z,3.218688
2018-07-17T00:52:10.578Z,3.218688
2018-07-17T00:52:22.966Z,3.218688
2018-07-17T00:52:35.412Z,3.218688
2018-07-17T00:52:47.825Z,6.437376
2018-07-17T00:53:00.437Z,8.04672
2018-07-17T00:53:12.858Z,6.437376
2018-07-17T00:53:25.277Z,6.437376
2018-07-17T00:53:37.811Z,6.437376
2018-07-17T00:53:50.225Z,6.437376
2018-07-17T00:54:02.729Z,6.437376
2018-07-17T00:54:15.150Z,4.828032
2018-07-17T00:54:27.564Z,6.437376
2018-07-17T00:54:39.954Z,6.437376
2018-07-17T00:54:52.415Z,6.437376
2018-07-17T00:55:05.009Z,4.828032
2018-07-17T00:55:17.619Z,4.828032
2018-07-17T00:55:30.041Z,4.828032
2018-07-17T00:55:43.209Z,4.828032
2018-07-17T00:55:55.907Z,4.828032
2018-07-17T00:56:08.306Z,1.609344
2018-07-17T00:56:20.697Z,6.437376
2018-07-17T00:56:33.099Z,6.437376
2018-07-17T00:56:45.498Z,8.04672
2018-07-17T00:56:57.908Z,8.04672
2018-07-17T00:57:10.311Z,6.437376
2018-07-17T00:57:22.718Z,6.437376
2018-07-17T00:57:35.154Z,6.437376
2018-07-17T00:57:47.647Z,6.437376
2018-07-17T00:58:00.076Z,6.437376
2018-07-17T00:58:12.502Z,1.609344
2018-07-17T00:58:24.913Z,3.218688
2018-07-17T00:58:37.314Z,4.828032
2018-07-17T00:58:49.761Z,4.828032
2018-07-17T00:59:02.153Z,4.828032
2018-07-17T00:59:14.571Z,3.218688
2018-07-17T00:59:26.966Z,3.218688
2018-07-17T00:59:39.411Z,3.218688
2018-07-17T00:59:51.849Z,4.828032
2018-07-17T01:00:04.253Z,6.437376
2018-07-17T01:00:16.881Z,3.218688
2018-07-17T01:00:29.311Z,3.218688
2018-07-17T01:00:41.722Z,3.218688
2018-07-17T01:00:54.202Z,3.218688
2018-07-17T01:01:07.301Z,3.218688
2018-07-17T01:01:20.571Z,3.218688
2018-07-17T01:01:32.998Z,6.437376
2018-07-17T01:01:45.395Z,6.437376
2018-07-17T01:01:58.061Z,6.437376
2018-07-17T01:02:10.493Z,3.218688
2018-07-17T01:02:22.951Z,3.218688
2018-07-17T01:02:35.358Z,3.218688
2018-07-17T01:02:47.769Z,3.218688
2018-07-17T01:03:00.195Z,3.218688
2018-07-17T01:03:12.626Z,3.218688
2018-07-17T01:03:25.041Z,3.218688
2018-07-17T01:03:37.555Z,3.218688
2018-07-17T01:03:49.993Z,8.04672
2018-07-17T01:04:02.399Z,8.04672
2018-07-17T01:04:14.885Z,3.218688
2018-07-17T01:04:27.321Z,3.218688
2018-07-17T01:04:39.746Z,3.218688
2018-07-17T01:04:52.419Z,8.04672
2018-07-17T01:05:04.821Z,4.828032
2018-07-17T01:05:17.217Z,9.656064
2018-07-17T01:05:29.630Z,11.265408
2018-07-17T01:05:42.044Z,11.265408
2018-07-17T01:05:54.475Z,11.265408
2018-07-17T01:06:06.880Z,6.437376
2018-07-17T01:06:19.348Z,6.437376
2018-07-17T01:06:31.818Z,6.437376
2018-07-17T01:06:44.234Z,8.04672
2018-07-17T01:06:56.770Z,8.04672
2018-07-17T01:07:09.898Z,3.218688
2018-07-17T01:07:23.104Z,3.218688
2018-07-17T01:07:35.520Z,4.828032
2018-07-17T01:07:47.929Z,6.437376
2018-07-17T01:08:00.334Z,8.04672
2018-07-17T01:08:12.727Z,3.218688
2018-07-17T01:08:25.159Z,3.218688
2018-07-17T01:08:37.573Z,4.828032
2018-07-17T01:08:50.010Z,4.828032
2018-07-17T01:09:02.402Z,4.828032
2018-07-17T01:09:14.809Z,3.218688
2018-07-17T01:09:27.210Z,3.218688
2018-07-17T01:09:39.694Z,6.437376
2018-07-17T01:09:52.082Z,6.437376
2018-07-17T01:10:04.512Z,6.437376
2018-07-17T01:10:16.915Z,8.04672
2018-07-17T01:10:29.334Z,8.04672
2018-07-17T01:10:41.736Z,8.04672
2018-07-17T01:10:54.148Z,9.656064
2018-07-17T01:11:06.543Z,8.04672
2018-07-17T01:11:18.957Z,9.656064
2018-07-17T01:11:31.370Z,9.656064
2018-07-17T01:11:44.077Z,9.656064
2018-07-17T01:11:56.497Z,9.656064
2018-07-17T01:12:08.970Z,6.437376
2018-07-17T01:12:21.360Z,6.437376
2018-07-17T01:12:33.761Z,6.437376
2018-07-17T01:12:46.236Z,6.437376
2018-07-17T01:12:58.894Z,6.437376
2018-07-17T01:13:11.313Z,3.218688
2018-07-17T01:13:23.725Z,3.218688
2018-07-17T01:13:36.145Z,8.04672
2018-07-17T01:13:48.540Z,8.04672
2018-07-17T01:14:00.949Z,8.04672
2018-07-17T01:14:13.347Z,8.04672
2018-07-17T01:14:25.748Z,8.04672
2018-07-17T01:14:38.147Z,8.04672
2018-07-17T01:14:50.548Z,8.04672
2018-07-17T01:15:02.976Z,8.04672
2018-07-17T01:15:15.433Z,6.437376
2018-07-17T01:15:27.835Z,6.437376
2018-07-17T01:15:40.248Z,6.437376
2018-07-17T01:15:52.670Z,8.04672
2018-07-17T01:16:05.084Z,6.437376
2018-07-17T01:16:17.486Z,6.437376
2018-07-17T01:16:29.884Z,6.437376
2018-07-17T01:16:42.296Z,6.437376
2018-07-17T01:16:54.695Z,6.437376
2018-07-17T01:17:07.107Z,3.218688
2018-07-17T01:17:19.495Z,6.437376
2018-07-17T01:17:31.898Z,8.04672
2018-07-17T01:17:44.325Z,9.656064
2018-07-17T01:17:56.926Z,9.656064
2018-07-17T01:18:09.344Z,3.218688
2018-07-17T01:18:21.757Z,4.828032
2018-07-17T01:18:34.161Z,6.437376
2018-07-17T01:18:46.552Z,6.437376
2018-07-17T01:18:58.976Z,6.437376
2018-07-17T01:19:11.362Z,3.218688
2018-07-17T01:19:23.763Z,4.828032
2018-07-17T01:19:36.320Z,4.828032
2018-07-17T01:19:48.722Z,4.828032
2018-07-17T01:20:01.113Z,6.437376
2018-07-17T01:20:13.507Z,6.437376
2018-07-17T01:20:25.902Z,9.656064
2018-07-17T01:20:38.389Z,9.656064
2018-07-17T01:20:50.780Z,9.656064
2018-07-17T01:21:03.168Z,9.656064
2018-07-17T01:21:15.582Z,8.04672
2018-07-17T01:21:27.992Z,8.04672
2018-07-17T01:21:40.405Z,8.04672
2018-07-17T01:21:52.803Z,8.04672
2018-07-17T01:22:05.208Z,3.218688
2018-07-17T01:22:17.590Z,3.218688
2018-07-17T01:22:29.979Z,3.218688
2018-07-17T01:22:42.423Z,6.437376
2018-07-17T01:22:54.821Z,6.437376
2018-07-17T01:23:07.284Z,3.218688
2018-07-17T01:23:19.729Z,3.218688
2018-07-17T01:23:32.151Z,3.218688
2018-07-17T01:23:44.572Z,3.218688
2018-07-17T01:23:56.960Z,3.218688
2018-07-17T01:24:09.392Z,9.656064
2018-07-17T01:24:21.785Z,9.656064
2018-07-17T01:24:34.196Z,9.656064
2018-07-17T01:24:46.624Z,9.656064
2018-07-17T01:24:59.097Z,9.656064
2018-07-17T01:25:11.505Z,8.04672
2018-07-17T01:25:23.890Z,8.04672
2018-07-17T01:25:36.459Z,8.04672
2018-07-17T01:25:49.026Z,8.04672
2018-07-17T01:26:01.444Z,8.04672
2018-07-17T01:26:13.855Z,3.218688
2018-07-17T01:26:26.263Z,4.828032
2018-07-17T01:26:38.653Z,6.437376
2018-07-17T01:26:51.077Z,6.437376
2018-07-17T01:27:03.481Z,8.04672
2018-07-17T01:27:15.883Z,8.04672
2018-07-17T01:27:28.305Z,8.04672
2018-07-17T01:27:40.727Z,8.04672
2018-07-17T01:27:53.135Z,8.04672
2018-07-17T01:28:05.588Z,3.218688
2018-07-17T01:28:18.051Z,3.218688
2018-07-17T01:28:30.449Z,3.218688
2018-07-17T01:28:42.845Z,6.437376
2018-07-17T01:28:55.233Z,6.437376
2018-07-17T01:29:07.611Z,8.04672
2018-07-17T01:29:20.001Z,9.656064
2018-07-17T01:29:32.429Z,9.656064
2018-07-17T01:29:44.982Z,9.656064
2018-07-17T01:29:57.374Z,9.656064
2018-07-17T01:30:09.790Z,3.218688
2018-07-17T01:30:22.194Z,3.218688
2018-07-17T01:30:34.602Z,4.828032
2018-07-17T01:30:47.017Z,6.437376
2018-07-17T01:30:59.418Z,6.437376
2018-07-17T01:31:11.978Z,3.218688
2018-07-17T01:31:24.390Z,4.828032
2018-07-17T01:31:36.847Z,4.828032
2018-07-17T01:31:49.326Z,4.828032
2018-07-17T01:32:01.752Z,6.437376
2018-07-17T01:32:14.152Z,4.828032
2018-07-17T01:32:26.556Z,9.656064
2018-07-17T01:32:38.959Z,9.656064
2018-07-17T01:32:51.390Z,9.656064
2018-07-17T01:33:03.798Z,8.04672
2018-07-17T01:33:16.213Z,8.04672
2018-07-17T01:33:28.616Z,8.04672
2018-07-17T01:33:41.008Z,8.04672
2018-07-17T01:33:53.462Z,8.04672
2018-07-17T01:34:05.877Z,3.218688
2018-07-17T01:34:18.263Z,6.437376
2018-07-17T01:34:30.669Z,6.437376
2018-07-17T01:34:43.053Z,6.437376
2018-07-17T01:34:55.471Z,6.437376
2018-07-17T01:35:07.869Z,1.609344
2018-07-17T01:35:20.285Z,3.218688
2018-07-17T01:35:32.708Z,3.218688
2018-07-17T01:35:45.117Z,3.218688
2018-07-17T01:35:57.520Z,3.218688
2018-07-17T01:36:09.928Z,3.218688
2018-07-17T01:36:22.375Z,3.218688
2018-07-17T01:36:34.772Z,4.828032
2018-07-17T01:36:47.167Z,4.828032
2018-07-17T01:36:59.546Z,4.828032
2018-07-17T01:37:11.942Z,3.218688
2018-07-17T01:37:24.352Z,3.218688
2018-07-17T01:37:36.744Z,3.218688
2018-07-17T01:37:49.159Z,3.218688
2018-07-17T01:38:01.549Z,3.218688
2018-07-17T01:38:13.958Z,4.828032
2018-07-17T01:38:26.959Z,6.437376
2018-07-17T01:38:40.338Z,6.437376
2018-07-17T01:38:52.756Z,8.04672
2018-07-17T01:39:05.190Z,8.04672
2018-07-17T01:39:17.583Z,8.04672
2018-07-17T01:39:30.015Z,8.04672
2018-07-17T01:39:42.418Z,8.04672
2018-07-17T01:39:54.813Z,8.04672
2018-07-17T01:40:07.232Z,3.218688
2018-07-17T01:40:19.650Z,3.218688
2018-07-17T01:40:32.051Z,3.218688
2018-07-17T01:40:44.449Z,3.218688
2018-07-17T01:40:56.839Z,3.218688
2018-07-17T01:41:09.241Z,3.218688
2018-07-17T01:41:21.674Z,3.218688
2018-07-17T01:41:34.111Z,3.218688
2018-07-17T01:41:46.523Z,3.218688
2018-07-17T01:41:58.936Z,3.218688
2018-07-17T01:42:11.351Z,4.828032
2018-07-17T01:42:23.761Z,8.04672
2018-07-17T01:42:36.175Z,8.04672
2018-07-17T01:42:48.608Z,9.656064
2018-07-17T01:43:01.556Z,9.656064
2018-07-17T01:43:14.655Z,4.828032
2018-07-17T01:43:27.066Z,6.437376
2018-07-17T01:43:39.478Z,6.437376
2018-07-17T01:43:51.924Z,6.437376
2018-07-17T01:44:04.321Z,6.437376
2018-07-17T01:44:16.727Z,9.656064
2018-07-17T01:44:29.153Z,11.265408
2018-07-17T01:44:41.571Z,11.265408
2018-07-17T01:44:54.046Z,11.265408
2018-07-17T01:45:06.493Z,3.218688
2018-07-17T01:45:18.902Z,4.828032
2018-07-17T01:45:31.383Z,6.437376
2018-07-17T01:45:43.855Z,6.437376
2018-07-17T01:45:56.308Z,8.04672
2018-07-17T01:46:08.749Z,8.04672
2018-07-17T01:46:21.234Z,8.04672
2018-07-17T01:46:33.696Z,8.04672
2018-07-17T01:46:46.101Z,8.04672
2018-07-17T01:46:58.524Z,8.04672
2018-07-17T01:47:10.920Z,3.218688
2018-07-17T01:47:23.322Z,3.218688
2018-07-17T01:47:35.739Z,4.828032
2018-07-17T01:47:48.123Z,6.437376
2018-07-17T01:48:00.583Z,6.437376
2018-07-17T01:48:13.008Z,6.437376
2018-07-17T01:48:25.424Z,8.04672
2018-07-17T01:48:37.810Z,8.04672
2018-07-17T01:48:50.330Z,8.04672
2018-07-17T01:49:02.758Z,1.609344
2018-07-17T01:49:15.159Z,3.218688
2018-07-17T01:49:27.552Z,6.437376
2018-07-17T01:49:39.974Z,6.437376
2018-07-17T01:49:52.383Z,6.437376
2018-07-17T01:50:04.867Z,3.218688
2018-07-17T01:50:17.271Z,3.218688
2018-07-17T01:50:29.689Z,8.04672
2018-07-17T01:50:42.082Z,8.04672
2018-07-17T01:50:54.487Z,8.04672
2018-07-17T01:51:06.887Z,1.609344
2018-07-17T01:51:19.548Z,3.218688
2018-07-17T01:51:31.972Z,6.437376
2018-07-17T01:51:44.383Z,6.437376
2018-07-17T01:51:56.821Z,6.437376
2018-07-17T01:52:09.281Z,3.218688
2018-07-17T01:52:21.673Z,3.218688
2018-07-17T01:52:34.093Z,3.218688
2018-07-17T01:52:46.473Z,3.218688
2018-07-17T01:52:58.872Z,3.218688
2018-07-17T01:53:11.279Z,4.828032
2018-07-17T01:53:23.692Z,4.828032
2018-07-17T01:53:36.117Z,4.828032
2018-07-17T01:53:48.521Z,4.828032
2018-07-17T01:54:00.931Z,4.828032
2018-07-17T01:54:13.316Z,3.218688
2018-07-17T01:54:25.744Z,3.218688
2018-07-17T01:54:38.174Z,3.218688
2018-07-17T01:54:50.592Z,6.437376
2018-07-17T01:55:02.989Z,6.437376
2018-07-17T01:55:15.642Z,8.04672
2018-07-17T01:55:28.039Z,9.656064
2018-07-17T01:55:40.435Z,9.656064
2018-07-17T01:55:52.831Z,9.656064
2018-07-17T01:56:05.233Z,3.218688
2018-07-17T01:56:17.631Z,3.218688
2018-07-17T01:56:30.041Z,6.437376
2018-07-17T01:56:42.450Z,8.04672
2018-07-17T01:56:54.931Z,8.04672
2018-07-17T01:57:07.362Z,4.828032
2018-07-17T01:57:19.757Z,4.828032
2018-07-17T01:57:32.204Z,8.04672
2018-07-17T01:57:44.600Z,9.656064
2018-07-17T01:57:57.042Z,9.656064
2018-07-17T01:58:09.436Z,6.437376
2018-07-17T01:58:21.861Z,6.437376
2018-07-17T01:58:34.311Z,6.437376
2018-07-17T01:58:46.700Z,6.437376
2018-07-17T01:58:59.089Z,8.04672
2018-07-17T01:59:11.500Z,4.828032
2018-07-17T01:59:23.928Z,4.828032
2018-07-17T01:59:36.333Z,6.437376
2018-07-17T01:59:48.734Z,6.437376
2018-07-17T02:00:01.142Z,6.437376
2018-07-17T02:00:13.655Z,3.218688
2018-07-17T02:00:26.284Z,6.437376
2018-07-17T02:00:38.707Z,8.04672
2018-07-17T02:00:51.107Z,9.656064
2018-07-17T02:01:03.608Z,3.218688
2018-07-17T02:01:16.057Z,4.828032
2018-07-17T02:01:28.474Z,4.828032
2018-07-17T02:01:40.951Z,4.828032
2018-07-17T02:01:53.445Z,6.437376
2018-07-17T02:02:05.865Z,3.218688
2018-07-17T02:02:18.342Z,3.218688
2018-07-17T02:02:30.778Z,3.218688
2018-07-17T02:02:43.239Z,6.437376
2018-07-17T02:02:55.693Z,6.437376
2018-07-17T02:03:08.147Z,3.218688
2018-07-17T02:03:20.549Z,3.218688
2018-07-17T02:03:32.953Z,3.218688
2018-07-17T02:03:45.393Z,3.218688
2018-07-17T02:03:57.848Z,3.218688
2018-07-17T02:04:10.261Z,3.218688
2018-07-17T02:04:22.728Z,3.218688
2018-07-17T02:04:35.172Z,8.04672
2018-07-17T02:04:47.799Z,8.04672
2018-07-17T02:05:01.764Z,8.04672
2018-07-17T02:05:14.184Z,9.656064
2018-07-17T02:05:26.575Z,9.656064
2018-07-17T02:05:38.977Z,9.656064
2018-07-17T02:05:51.407Z,9.656064
2018-07-17T02:06:03.820Z,8.04672
2018-07-17T02:06:16.264Z,8.04672
2018-07-17T02:06:28.660Z,8.04672
2018-07-17T02:06:41.126Z,12.874752
2018-07-17T02:06:53.583Z,12.874752
2018-07-17T02:07:05.971Z,9.656064
2018-07-17T02:07:18.359Z,9.656064
2018-07-17T02:07:30.882Z,9.656064
2018-07-17T02:07:43.288Z,9.656064
2018-07-17T02:07:55.785Z,9.656064
2018-07-17T02:08:08.173Z,4.828032
2018-07-17T02:08:20.563Z,6.437376
2018-07-17T02:08:32.959Z,8.04672
2018-07-17T02:08:45.336Z,9.656064
2018-07-17T02:08:57.741Z,9.656064
2018-07-17T02:09:10.179Z,9.656064
2018-07-17T02:09:22.595Z,9.656064
2018-07-17T02:09:35.017Z,9.656064
2018-07-17T02:09:47.424Z,9.656064
2018-07-17T02:09:59.824Z,9.656064
2018-07-17T02:10:12.249Z,3.218688
2018-07-17T02:10:24.648Z,3.218688
2018-07-17T02:10:37.059Z,8.04672
2018-07-17T02:10:49.463Z,8.04672
2018-07-17T02:11:01.888Z,8.04672
2018-07-17T02:11:14.274Z,8.04672
2018-07-17T02:11:26.662Z,9.656064
2018-07-17T02:11:39.066Z,9.656064
2018-07-17T02:11:51.532Z,9.656064
2018-07-17T02:12:03.947Z,9.656064
2018-07-17T02:12:16.436Z,9.656064
2018-07-17T02:12:29.045Z,9.656064
2018-07-17T02:12:41.427Z,9.656064
2018-07-17T02:12:53.818Z,9.656064
2018-07-17T02:13:06.306Z,6.437376
2018-07-17T02:13:18.728Z,6.437376
2018-07-17T02:13:31.160Z,6.437376
2018-07-17T02:13:43.561Z,6.437376
2018-07-17T02:13:55.968Z,6.437376
2018-07-17T02:14:08.402Z,8.04672
2018-07-17T02:14:20.807Z,8.04672
2018-07-17T02:14:33.200Z,9.656064
2018-07-17T02:14:45.603Z,9.656064
2018-07-17T02:14:58.007Z,9.656064
2018-07-17T02:15:10.421Z,6.437376
2018-07-17T02:15:22.830Z,8.04672
2018-07-17T02:15:35.241Z,8.04672
2018-07-17T02:15:47.640Z,8.04672
2018-07-17T02:16:00.041Z,8.04672
2018-07-17T02:16:12.451Z,6.437376
2018-07-17T02:16:24.854Z,6.437376
2018-07-17T02:16:37.254Z,6.437376
2018-07-17T02:16:49.667Z,6.437376
2018-07-17T02:17:02.081Z,6.437376
2018-07-17T02:17:14.501Z,4.828032
2018-07-17T02:17:26.905Z,4.828032
2018-07-17T02:17:39.310Z,4.828032
2018-07-17T02:17:51.727Z,4.828032
2018-07-17T02:18:04.187Z,1.609344
2018-07-17T02:18:16.588Z,1.609344
2018-07-17T02:18:29.039Z,3.218688
2018-07-17T02:18:41.609Z,3.218688
2018-07-17T02:18:55.108Z,3.218688
2018-07-17T02:19:07.616Z,3.218688
2018-07-17T02:19:20.016Z,3.218688
2018-07-17T02:19:32.444Z,3.218688
2018-07-17T02:19:44.859Z,3.218688
2018-07-17T02:19:57.345Z,3.218688
2018-07-17T02:20:09.754Z,1.609344
2018-07-17T02:20:22.147Z,1.609344
2018-07-17T02:20:34.558Z,1.609344
2018-07-17T02:20:47.064Z,1.609344
2018-07-17T02:20:59.464Z,1.609344
2018-07-17T02:21:11.875Z,1.609344
2018-07-17T02:21:24.254Z,1.609344
2018-07-17T02:21:36.670Z,1.609344
2018-07-17T02:21:49.097Z,4.828032
2018-07-17T02:22:01.503Z,4.828032
2018-07-17T02:22:13.898Z,4.828032
2018-07-17T02:22:26.346Z,4.828032
2018-07-17T02:22:38.743Z,4.828032
2018-07-17T02:22:51.167Z,4.828032
2018-07-17T02:23:03.590Z,8.04672
2018-07-17T02:23:15.987Z,8.04672
2018-07-17T02:23:28.387Z,8.04672
2018-07-17T02:23:40.772Z,8.04672
2018-07-17T02:23:53.159Z,8.04672
2018-07-17T02:24:05.560Z,3.218688
2018-07-17T02:24:17.965Z,6.437376
2018-07-17T02:24:30.360Z,6.437376
2018-07-17T02:24:42.756Z,6.437376
2018-07-17T02:24:55.166Z,6.437376
2018-07-17T02:25:07.592Z,1.609344
2018-07-17T02:25:19.982Z,1.609344
2018-07-17T02:25:32.446Z,1.609344
2018-07-17T02:25:45.064Z,4.828032
2018-07-17T02:25:57.474Z,4.828032
2018-07-17T02:26:10.043Z,3.218688
2018-07-17T02:26:22.447Z,3.218688
2018-07-17T02:26:34.852Z,3.218688
2018-07-17T02:26:47.277Z,3.218688